Terminal Aerodrome Forecast
Issued by NWS Jackson, MS

Home | Current Version | Previous Version | Text Only | Print | Product List | Glossary On
Versions: 1 2 3 4 5 6 7 8 9 10 11 12 13 14 15
298
FTUS44 KJAN 171340 AAA
TAFGLH
TAF AMD
KGLH 171340Z 1714/1812 23012G20KT P6SM SCT015 BKN040
     FM171700 24009KT P6SM VCTS BKN050CB
     FM180000 20006KT P6SM SCT060 SCT100=

USA.gov is the U.S. government's official web portal to all federal, state and local government web resources and services.